createdAt,value
2023-01-09T00:00:37.680Z,0.80
2023-01-09T00:03:22.715Z,0.38
2023-01-09T00:06:07.714Z,0.40
2023-01-09T00:08:53.179Z,0.35
2023-01-09T00:11:38.521Z,0.40
2023-01-09T00:14:24.115Z,1.50
2023-01-09T00:17:09.183Z,0.73
2023-01-09T00:19:54.165Z,1.00
2023-01-09T00:22:39.417Z,0.45
2023-01-09T00:25:24.582Z,2.53
2023-01-09T00:28:09.663Z,0.73
2023-01-09T00:30:59.787Z,2.22
2023-01-09T00:33:50.191Z,0.40
2023-01-09T00:36:35.074Z,0.63
2023-01-09T00:39:20.953Z,0.93
2023-01-09T00:42:07.957Z,3.13
2023-01-09T00:44:57.433Z,0.35
2023-01-09T00:47:50.116Z,0.50
2023-01-09T00:50:35.586Z,0.35
2023-01-09T00:53:23.359Z,0.30
2023-01-09T00:56:14.821Z,0.30
2023-01-09T00:58:59.680Z,0.30
2023-01-09T01:01:44.607Z,0.40
2023-01-09T01:04:48.152Z,0.30
2023-01-09T01:07:39.405Z,0.60
2023-01-09T01:10:25.853Z,0.90
2023-01-09T01:13:11.532Z,0.30
2023-01-09T01:15:56.679Z,0.52
2023-01-09T01:18:41.397Z,0.82
2023-01-09T01:21:26.620Z,0.30
2023-01-09T01:24:11.507Z,0.40
2023-01-09T01:26:56.330Z,0.28
2023-01-09T01:29:41.396Z,0.30
2023-01-09T01:32:26.415Z,0.30
2023-01-09T01:35:11.921Z,0.30
2023-01-09T01:37:57.033Z,0.50
2023-01-09T01:40:41.952Z,0.88
2023-01-09T01:43:27.122Z,0.30
2023-01-09T01:46:12.149Z,0.40
2023-01-09T01:49:00.730Z,0.40
2023-01-09T01:51:51.106Z,1.07
2023-01-09T01:54:36.564Z,0.40
2023-01-09T01:57:21.483Z,0.45
2023-01-09T02:00:07.094Z,0.30
2023-01-09T02:02:52.017Z,0.57
2023-01-09T02:05:38.889Z,1.67
2023-01-09T02:08:23.821Z,0.68
2023-01-09T02:11:09.254Z,0.77
2023-01-09T02:13:54.353Z,0.45
2023-01-09T02:16:47.722Z,0.90
2023-01-09T02:19:54.728Z,0.53
2023-01-09T02:22:57.023Z,0.50
2023-01-09T02:25:59.935Z,2.88
2023-01-09T02:28:50.860Z,0.57
2023-01-09T02:31:55.065Z,0.98
2023-01-09T02:34:51.941Z,0.50
2023-01-09T02:37:57.814Z,1.02
2023-01-09T02:41:15.190Z,0.77
2023-01-09T02:44:12.477Z,0.50
2023-01-09T02:47:02.696Z,0.77
2023-01-09T02:49:54.894Z,0.73
2023-01-09T02:53:02.973Z,0.50
2023-01-09T02:56:20.719Z,2.35
2023-01-09T02:59:23.529Z,1.67
2023-01-09T03:02:17.213Z,0.60
2023-01-09T03:05:28.620Z,0.40
2023-01-09T03:08:19.153Z,1.38
2023-01-09T03:11:07.545Z,1.25
2023-01-09T03:14:01.021Z,0.77
2023-01-09T03:16:49.633Z,0.80
2023-01-09T03:19:35.645Z,3.37
2023-01-09T03:22:20.907Z,7.38
2023-01-09T03:25:06.280Z,6.18
2023-01-09T03:28:00.203Z,4.35
2023-01-09T03:30:45.237Z,2.72
2023-01-09T03:33:30.144Z,3.90
2023-01-09T03:36:17.383Z,3.85
2023-01-09T03:39:02.346Z,6.13
2023-01-09T03:41:47.376Z,6.05
2023-01-09T03:44:32.218Z,5.95
2023-01-09T03:47:17.010Z,3.77
2023-01-09T03:50:02.284Z,3.00
2023-01-09T03:52:47.128Z,2.80
2023-01-09T03:55:32.215Z,5.43
2023-01-09T03:58:18.285Z,3.95
2023-01-09T04:01:05.605Z,4.10
2023-01-09T04:03:50.778Z,3.60
2023-01-09T04:06:35.614Z,3.65
2023-01-09T04:09:20.424Z,2.88
2023-01-09T04:12:05.520Z,2.55
2023-01-09T04:14:50.730Z,2.53
2023-01-09T04:17:35.725Z,3.42
2023-01-09T04:20:20.516Z,2.88
2023-01-09T04:23:05.605Z,2.00
2023-01-09T04:25:50.820Z,3.03
2023-01-09T04:28:35.895Z,2.87
2023-01-09T04:31:21.002Z,2.85
2023-01-09T04:34:05.885Z,1.10
2023-01-09T04:36:51.680Z,2.15
2023-01-09T04:39:37.238Z,1.20
2023-01-09T04:42:22.942Z,1.70
2023-01-09T04:45:09.506Z,1.73
2023-01-09T04:47:54.388Z,1.65
2023-01-09T04:50:39.421Z,2.60
2023-01-09T04:53:24.626Z,3.30
2023-01-09T04:56:09.269Z,2.97
2023-01-09T04:58:54.410Z,1.88
2023-01-09T05:01:39.548Z,0.43
2023-01-09T05:04:25.489Z,5.35
2023-01-09T05:07:10.405Z,0.40
2023-01-09T05:09:55.373Z,0.30
2023-01-09T05:12:40.569Z,6.05
2023-01-09T05:15:28.091Z,2.28
2023-01-09T05:18:14.389Z,0.60
2023-01-09T05:20:59.258Z,2.25
2023-01-09T05:23:44.173Z,2.73
2023-01-09T05:26:29.076Z,0.82
2023-01-09T05:29:13.947Z,0.65
2023-01-09T05:31:58.797Z,3.97
2023-01-09T05:34:43.465Z,4.45
2023-01-09T05:37:28.549Z,2.20
2023-01-09T05:40:13.964Z,1.45
2023-01-09T05:42:58.960Z,3.05
2023-01-09T05:45:43.913Z,0.85
2023-01-09T05:48:29.331Z,0.77
2023-01-09T05:51:14.239Z,3.87
2023-01-09T05:53:59.350Z,1.83
2023-01-09T05:56:44.540Z,1.30
2023-01-09T05:59:29.630Z,0.60
2023-01-09T06:02:14.582Z,4.03
2023-01-09T06:04:59.850Z,0.40
2023-01-09T06:07:44.572Z,0.80
2023-01-09T06:10:29.577Z,1.30
2023-01-09T06:13:14.439Z,1.80
2023-01-09T06:15:59.234Z,5.75
2023-01-09T06:18:43.945Z,1.77
2023-01-09T06:21:29.464Z,2.72
2023-01-09T06:24:14.624Z,0.80
2023-01-09T06:26:59.396Z,0.50
2023-01-09T06:29:44.521Z,2.05
2023-01-09T06:32:29.544Z,0.90
2023-01-09T06:35:14.692Z,1.50
2023-01-09T06:38:01.370Z,3.90
2023-01-09T06:40:46.528Z,0.73
2023-01-09T06:43:31.712Z,2.10
2023-01-09T06:46:16.547Z,0.83
2023-01-09T06:49:01.553Z,2.15
2023-01-09T06:51:46.288Z,1.27
2023-01-09T06:54:31.606Z,3.95
2023-01-09T06:57:16.467Z,1.48
2023-01-09T07:00:01.742Z,2.30
2023-01-09T07:02:46.650Z,2.53
2023-01-09T07:05:37.545Z,0.90
2023-01-09T07:08:22.343Z,2.97
2023-01-09T07:11:07.233Z,1.13
2023-01-09T07:13:52.418Z,0.83
2023-01-09T07:16:37.637Z,1.02
2023-01-09T07:19:22.667Z,1.05
2023-01-09T07:22:08.150Z,4.00
2023-01-09T07:24:53.299Z,0.77
2023-01-09T07:27:38.430Z,2.23
2023-01-09T07:30:23.486Z,1.27
2023-01-09T07:33:08.686Z,1.02
2023-01-09T07:35:53.660Z,1.95
2023-01-09T07:38:39.542Z,0.82
2023-01-09T07:41:24.662Z,1.40
2023-01-09T07:44:11.142Z,0.73
2023-01-09T07:46:56.335Z,2.15
2023-01-09T07:49:41.667Z,0.40
2023-01-09T07:52:27.811Z,1.00
2023-01-09T07:55:15.576Z,1.80
2023-01-09T07:58:01.672Z,0.57
2023-01-09T08:00:46.501Z,1.58
2023-01-09T08:03:33.403Z,0.60
2023-01-09T08:06:18.225Z,1.80
2023-01-09T08:09:03.457Z,0.93
2023-01-09T08:11:48.766Z,1.95
2023-01-09T08:14:34.041Z,1.33
2023-01-09T08:17:19.244Z,0.70
2023-01-09T08:20:04.711Z,1.70
2023-01-09T08:22:50.376Z,3.93
2023-01-09T08:25:35.644Z,1.73
2023-01-09T08:28:20.742Z,2.38
2023-01-09T08:31:05.742Z,2.25
2023-01-09T08:33:50.669Z,0.73
2023-01-09T08:36:35.618Z,2.00
2023-01-09T08:39:20.427Z,1.38
2023-01-09T08:42:23.810Z,9.55
2023-01-09T08:45:30.010Z,0.65
2023-01-09T08:48:15.821Z,0.95
2023-01-09T08:51:00.673Z,2.27
2023-01-09T08:53:45.922Z,2.67
2023-01-09T08:56:31.005Z,1.50
2023-01-09T08:59:16.440Z,0.82
2023-01-09T09:02:01.398Z,0.90
2023-01-09T09:04:47.269Z,2.60
2023-01-09T09:07:32.686Z,1.95
2023-01-09T09:10:17.864Z,0.98
2023-01-09T09:13:03.126Z,2.20
2023-01-09T09:15:47.933Z,1.33
2023-01-09T09:18:32.992Z,1.90
2023-01-09T09:21:18.037Z,1.27
2023-01-09T09:24:03.269Z,1.00
2023-01-09T09:26:48.224Z,2.05
2023-01-09T09:29:33.002Z,1.73
2023-01-09T09:32:17.863Z,0.40
2023-01-09T09:35:02.914Z,0.95
2023-01-09T09:37:58.475Z,0.30
2023-01-09T09:40:52.214Z,0.70
2023-01-09T09:44:31.136Z,1.05
2023-01-09T09:47:43.684Z,1.83
2023-01-09T09:50:56.298Z,0.80
2023-01-09T09:53:53.990Z,0.70
2023-01-09T09:56:50.196Z,1.08
2023-01-09T09:59:39.981Z,1.08
2023-01-09T10:02:29.605Z,1.07
2023-01-09T10:05:26.900Z,1.85
2023-01-09T10:08:36.746Z,6.38
2023-01-09T10:11:32.022Z,0.93
2023-01-09T10:14:24.374Z,0.95
2023-01-09T10:17:28.136Z,1.57
2023-01-09T10:20:25.049Z,0.73
2023-01-09T10:23:52.732Z,0.60
2023-01-09T10:26:41.719Z,1.48
2023-01-09T10:29:41.690Z,1.05
2023-01-09T10:33:01.155Z,0.70
2023-01-09T10:36:18.317Z,0.40
2023-01-09T10:39:09.389Z,0.70
2023-01-09T10:42:04.663Z,0.55
2023-01-09T10:45:06.802Z,1.38
2023-01-09T10:47:57.166Z,1.33
2023-01-09T10:50:45.776Z,1.20
2023-01-09T10:53:38.605Z,1.58
2023-01-09T10:56:33.928Z,1.60
2023-01-09T10:59:18.763Z,1.80
2023-01-09T11:02:03.944Z,5.33
2023-01-09T11:04:49.154Z,0.30
2023-01-09T11:07:39.703Z,1.45
2023-01-09T11:10:45.390Z,1.88
2023-01-09T11:13:33.050Z,0.52
2023-01-09T11:16:20.732Z,0.90
2023-01-09T11:19:05.754Z,0.82
2023-01-09T11:21:50.902Z,1.05
2023-01-09T11:24:36.081Z,0.52
2023-01-09T11:27:24.266Z,0.60
2023-01-09T11:30:09.203Z,5.90
2023-01-09T11:32:56.485Z,1.88
2023-01-09T11:35:56.732Z,0.50
2023-01-09T11:38:59.700Z,1.33
2023-01-09T11:41:44.889Z,0.50
2023-01-09T11:44:31.369Z,0.50
2023-01-09T11:47:38.323Z,0.40
2023-01-09T11:50:28.835Z,0.40
2023-01-09T11:53:18.780Z,0.50
2023-01-09T11:56:04.495Z,1.70
2023-01-09T11:58:49.829Z,0.63
2023-01-09T12:02:14.129Z,0.60
2023-01-09T12:05:16.406Z,0.77
2023-01-09T12:08:07.677Z,0.70
2023-01-09T12:11:11.110Z,0.70
2023-01-09T12:14:20.016Z,0.40
2023-01-09T12:17:24.471Z,0.52
2023-01-09T12:20:31.017Z,0.50
2023-01-09T12:23:50.238Z,0.63
2023-01-09T12:27:17.364Z,0.30
2023-01-09T12:30:17.965Z,0.60
2023-01-09T12:33:29.652Z,0.80
2023-01-09T12:36:31.377Z,0.80
2023-01-09T12:39:26.258Z,0.90
2023-01-09T12:42:32.597Z,0.38
2023-01-09T12:45:42.215Z,2.87
2023-01-09T12:48:43.599Z,1.00
2023-01-09T12:51:37.534Z,3.05
2023-01-09T12:54:34.207Z,0.50
2023-01-09T12:57:27.449Z,0.88
2023-01-09T13:00:24.029Z,0.40
2023-01-09T13:03:21.082Z,0.43
2023-01-09T13:06:11.114Z,0.98
2023-01-09T13:09:13.122Z,2.00
2023-01-09T13:12:12.385Z,1.30
2023-01-09T13:15:22.186Z,1.67
2023-01-09T13:18:42.320Z,0.80
2023-01-09T13:21:27.748Z,0.70
2023-01-09T13:24:19.842Z,1.65
2023-01-09T13:27:10.832Z,1.00
2023-01-09T13:30:23.436Z,1.57
2023-01-09T13:33:27.060Z,1.67
2023-01-09T13:36:26.455Z,4.55
2023-01-09T13:39:20.795Z,2.15
2023-01-09T13:42:35.752Z,2.55
2023-01-09T13:45:25.734Z,1.70
2023-01-09T13:48:11.147Z,5.20
2023-01-09T13:51:34.864Z,1.48
2023-01-09T13:54:48.589Z,0.60
2023-01-09T13:57:35.630Z,1.40
2023-01-09T14:00:20.369Z,1.33
2023-01-09T14:03:08.284Z,3.65
2023-01-09T14:05:53.083Z,3.35
2023-01-09T14:08:40.394Z,1.98
2023-01-09T14:11:27.424Z,1.02
2023-01-09T14:14:30.358Z,1.67
2023-01-09T14:17:18.389Z,1.77
2023-01-09T14:20:23.171Z,1.55
2023-01-09T14:23:35.203Z,2.10
2023-01-09T14:26:41.032Z,1.40
2023-01-09T14:29:29.078Z,3.10
2023-01-09T14:32:23.073Z,3.22
2023-01-09T14:35:08.121Z,3.65
2023-01-09T14:38:02.328Z,1.80
2023-01-09T14:40:53.435Z,2.30
2023-01-09T14:43:45.970Z,3.10
2023-01-09T14:46:37.564Z,2.58
2023-01-09T14:49:41.084Z,2.38
2023-01-09T14:52:33.161Z,3.22
2023-01-09T14:55:29.843Z,3.03
2023-01-09T14:58:31.129Z,1.20
2023-01-09T15:01:26.996Z,2.45
2023-01-09T15:04:20.732Z,2.33
2023-01-09T15:07:06.287Z,5.32
2023-01-09T15:09:51.286Z,1.70
2023-01-09T15:12:36.214Z,1.40
2023-01-09T15:15:22.454Z,1.63
2023-01-09T15:18:10.449Z,4.50
2023-01-09T15:21:00.233Z,3.58
2023-01-09T15:23:44.990Z,1.38
2023-01-09T15:26:30.866Z,1.97
2023-01-09T15:29:20.414Z,2.50
2023-01-09T15:32:17.249Z,2.70
2023-01-09T15:35:02.358Z,5.00
2023-01-09T15:37:47.883Z,2.95
2023-01-09T15:40:34.249Z,6.67
2023-01-09T15:43:19.760Z,1.25
2023-01-09T15:46:05.105Z,2.63
2023-01-09T15:48:53.990Z,5.75
2023-01-09T15:51:43.275Z,2.88
2023-01-09T15:54:30.781Z,2.47
2023-01-09T15:57:24.612Z,3.88
2023-01-09T16:00:28.568Z,1.77
2023-01-09T16:03:20.144Z,4.18
2023-01-09T16:06:14.089Z,3.35
2023-01-09T16:09:00.405Z,2.47
2023-01-09T16:11:49.352Z,6.53
2023-01-09T16:14:45.420Z,7.90
2023-01-09T16:17:31.799Z,3.80
2023-01-09T16:20:25.449Z,5.70
2023-01-09T16:23:22.354Z,2.80
2023-01-09T16:26:19.660Z,0.77
2023-01-09T16:29:28.009Z,2.25
2023-01-09T16:32:22.408Z,3.92
2023-01-09T16:35:15.522Z,2.25
2023-01-09T16:38:00.617Z,2.33
2023-01-09T16:41:24.637Z,5.10
2023-01-09T16:44:10.532Z,3.10
2023-01-09T16:46:55.613Z,6.40
2023-01-09T16:49:40.493Z,2.03
2023-01-09T16:52:25.322Z,3.47
2023-01-09T16:55:11.082Z,2.38
2023-01-09T16:57:55.915Z,1.75
2023-01-09T17:00:40.739Z,5.43
2023-01-09T17:03:25.918Z,2.10
2023-01-09T17:06:17.140Z,3.70
2023-01-09T17:09:02.138Z,5.00
2023-01-09T17:11:47.145Z,3.45
2023-01-09T17:14:32.295Z,1.15
2023-01-09T17:17:17.966Z,3.60
2023-01-09T17:20:04.475Z,3.67
2023-01-09T17:22:49.427Z,3.67
2023-01-09T17:25:53.023Z,2.08
2023-01-09T17:28:40.583Z,1.73
2023-01-09T17:31:25.696Z,1.00
2023-01-09T17:34:10.414Z,4.23
2023-01-09T17:36:55.631Z,5.60
2023-01-09T17:39:40.817Z,4.13
2023-01-09T17:42:25.935Z,5.97
2023-01-09T17:45:11.569Z,13.45
2023-01-09T17:47:56.292Z,6.63
2023-01-09T17:50:41.171Z,2.85
2023-01-09T17:53:25.977Z,6.80
2023-01-09T17:56:38.456Z,4.45
2023-01-09T17:59:23.460Z,2.88
2023-01-09T18:02:16.903Z,2.90
2023-01-09T18:05:01.957Z,2.65
2023-01-09T18:07:47.065Z,6.00
2023-01-09T18:10:31.929Z,8.38
2023-01-09T18:13:17.021Z,4.10
2023-01-09T18:16:02.114Z,5.63
2023-01-09T18:18:47.383Z,4.18
2023-01-09T18:21:32.212Z,7.07
2023-01-09T18:24:17.171Z,5.38
2023-01-09T18:27:02.508Z,6.28
2023-01-09T18:29:47.666Z,5.10
2023-01-09T18:32:33.327Z,4.82
2023-01-09T18:35:18.345Z,6.28
2023-01-09T18:38:03.709Z,5.28
2023-01-09T18:40:49.614Z,4.47
2023-01-09T18:43:34.815Z,4.07
2023-01-09T18:46:23.964Z,6.63
2023-01-09T18:49:09.213Z,4.38
2023-01-09T18:51:54.377Z,4.75
2023-01-09T18:54:39.227Z,4.80
2023-01-09T18:57:24.182Z,3.07
2023-01-09T19:00:11.436Z,6.13
2023-01-09T19:02:56.401Z,9.77
2023-01-09T19:05:41.436Z,8.90
2023-01-09T19:08:30.056Z,5.68
2023-01-09T19:11:15.257Z,4.07
2023-01-09T19:14:00.325Z,5.22
2023-01-09T19:16:45.587Z,5.82
2023-01-09T19:19:30.791Z,2.63
2023-01-09T19:22:15.555Z,6.05
2023-01-09T19:25:00.417Z,5.47
2023-01-09T19:27:45.512Z,4.75
2023-01-09T19:30:30.598Z,4.00
2023-01-09T19:33:15.469Z,3.08
2023-01-09T19:36:00.592Z,5.70
2023-01-09T19:38:46.629Z,3.47
2023-01-09T19:41:31.527Z,6.05
2023-01-09T19:44:16.689Z,3.25
2023-01-09T19:47:01.794Z,4.25
2023-01-09T19:49:46.944Z,3.95
2023-01-09T19:52:32.122Z,6.30
2023-01-09T19:55:17.035Z,3.40
2023-01-09T19:58:02.207Z,5.80
2023-01-09T20:00:47.310Z,1.75
2023-01-09T20:03:32.480Z,8.07
2023-01-09T20:06:23.861Z,6.93
2023-01-09T20:09:11.859Z,5.97
2023-01-09T20:11:57.159Z,7.28
2023-01-09T20:14:41.996Z,5.20
2023-01-09T20:17:27.173Z,5.97
2023-01-09T20:20:12.134Z,7.70
2023-01-09T20:22:56.964Z,6.20
2023-01-09T20:25:44.370Z,4.85
2023-01-09T20:28:29.433Z,2.92
2023-01-09T20:31:17.366Z,4.07
2023-01-09T20:34:03.118Z,4.50
2023-01-09T20:36:48.474Z,4.75
2023-01-09T20:39:33.585Z,4.30
2023-01-09T20:42:18.585Z,3.88
2023-01-09T20:45:03.643Z,2.97
2023-01-09T20:47:48.480Z,3.37
2023-01-09T20:50:33.677Z,4.13
2023-01-09T20:53:18.570Z,3.45
2023-01-09T20:56:05.997Z,4.55
2023-01-09T20:58:51.442Z,4.85
2023-01-09T21:01:36.279Z,5.30
2023-01-09T21:04:21.248Z,3.78
2023-01-09T21:07:05.864Z,2.88
2023-01-09T21:09:50.765Z,4.47
2023-01-09T21:12:36.219Z,5.07
2023-01-09T21:15:21.381Z,3.07
2023-01-09T21:18:06.302Z,2.70
2023-01-09T21:20:51.311Z,3.47
2023-01-09T21:23:36.069Z,4.47
2023-01-09T21:26:24.698Z,1.92
2023-01-09T21:29:12.728Z,4.97
2023-01-09T21:31:57.835Z,2.55
2023-01-09T21:34:42.875Z,3.78
2023-01-09T21:37:28.976Z,2.05
2023-01-09T21:40:17.369Z,3.45
2023-01-09T21:43:21.005Z,3.00
2023-01-09T21:46:29.801Z,2.88
2023-01-09T21:49:15.017Z,3.92
2023-01-09T21:52:00.273Z,2.92
2023-01-09T21:54:45.388Z,5.13
2023-01-09T21:57:30.554Z,3.63
2023-01-09T22:00:16.045Z,3.72
2023-01-09T22:03:01.140Z,4.78
2023-01-09T22:05:46.263Z,4.88
2023-01-09T22:08:31.641Z,6.80
2023-01-09T22:11:16.884Z,7.23
2023-01-09T22:14:01.663Z,3.78
2023-01-09T22:16:47.433Z,5.95
2023-01-09T22:19:32.165Z,4.05
2023-01-09T22:22:17.401Z,3.78
2023-01-09T22:25:03.487Z,5.83
2023-01-09T22:27:48.517Z,3.88
2023-01-09T22:30:33.640Z,3.83
2023-01-09T22:33:18.823Z,6.22
2023-01-09T22:36:05.967Z,5.05
2023-01-09T22:38:57.156Z,4.57
2023-01-09T22:41:42.800Z,4.53
2023-01-09T22:44:27.915Z,4.50
2023-01-09T22:47:12.796Z,12.70
2023-01-09T22:49:57.679Z,9.52
2023-01-09T22:52:42.498Z,6.33
2023-01-09T22:55:27.244Z,6.53
2023-01-09T22:58:12.177Z,4.88
2023-01-09T23:00:57.171Z,5.10
2023-01-09T23:03:42.317Z,5.95
2023-01-09T23:06:27.315Z,11.53
2023-01-09T23:09:12.116Z,4.78
2023-01-09T23:12:02.566Z,6.97
2023-01-09T23:14:47.612Z,5.88
2023-01-09T23:17:32.595Z,5.75
2023-01-09T23:20:17.558Z,6.80
2023-01-09T23:23:02.355Z,7.90
2023-01-09T23:25:56.051Z,5.20
2023-01-09T23:28:40.985Z,8.02
2023-01-09T23:31:25.983Z,4.40
2023-01-09T23:34:16.437Z,6.83
2023-01-09T23:37:01.455Z,4.97
2023-01-09T23:39:46.532Z,11.18
2023-01-09T23:42:50.339Z,2.53
2023-01-09T23:45:42.803Z,10.48
2023-01-09T23:48:27.792Z,8.23
2023-01-09T23:51:12.822Z,6.63
2023-01-09T23:53:58.054Z,7.72
2023-01-09T23:56:43.111Z,6.68
2023-01-09T23:59:28.473Z,4.88
